ICE808 BIKF-GCTS
Flight info
| Callsign | ICE808 |
|---|---|
| Flight time | N/A |
| Altitude | 33000 |
| Route | RIMUM1C RIMUM DCT 61N020W/M080F340 55N019W 50N018W 45N017W 4000N01630W/M080F360 DCT NAVIX/N0461F350 T16 SNT/N0438F230 UN975 ORTIS |
| Aircraft | B752/M-SDE2E3FGHIJ3J4J7RWXY/LB1 |
Departure
| Time | 2026-04-29 17:44 |
|---|---|
| Airport | Keflavik International Airport (BIKF) |
Arrival
| Time | N/A |
|---|---|
| Airport | Tenerife Sur Airport (GCTS) |
| Time | Latitude | Longitude | Altitude | Speed | Heading |
|---|---|---|---|---|---|
| 2026-04-29 17:37 | 63.99227 | -22.62729 | 181 ft | 0 kts | 51° |
| 2026-04-29 17:39 | 63.99232 | -22.62695 | 181 ft | 9 kts | 77° |
| 2026-04-29 17:39 | 63.99222 | -22.62453 | 181 ft | 17 kts | 120° |
| 2026-04-29 17:40 | 63.99186 | -22.62298 | 181 ft | 4 kts | 109° |
| 2026-04-29 17:40 | 63.99185 | -22.62290 | 181 ft | 0 kts | 108° |
| 2026-04-29 17:40 | 63.99180 | -22.62251 | 181 ft | 9 kts | 102° |
| 2026-04-29 17:40 | 63.99176 | -22.62036 | 181 ft | 15 kts | 89° |
| 2026-04-29 17:41 | 63.99177 | -22.61889 | 181 ft | 5 kts | 89° |
| 2026-04-29 17:41 | 63.99178 | -22.61674 | 181 ft | 20 kts | 90° |
| 2026-04-29 17:41 | 63.99176 | -22.61417 | 181 ft | 11 kts | 91° |
| 2026-04-29 17:41 | 63.99174 | -22.61206 | 181 ft | 20 kts | 91° |
| 2026-04-29 17:42 | 63.99172 | -22.60976 | 181 ft | 9 kts | 90° |
| 2026-04-29 17:42 | 63.99172 | -22.60861 | 181 ft | 12 kts | 90° |
| 2026-04-29 17:42 | 63.99172 | -22.60697 | 181 ft | 8 kts | 96° |
| 2026-04-29 17:42 | 63.99117 | -22.60567 | 181 ft | 18 kts | 173° |
| 2026-04-29 17:43 | 63.98781 | -22.60554 | 182 ft | 78 kts | 180° |
| 2026-04-29 17:43 | 63.98055 | -22.60534 | 182 ft | 130 kts | 180° |
| 2026-04-29 17:43 | 63.97007 | -22.60510 | 263 ft | 165 kts | 181° |
| 2026-04-29 17:43 | 63.95816 | -22.60448 | 661 ft | 178 kts | 180° |
| 2026-04-29 17:44 | 63.94519 | -22.60309 | 1182 ft | 197 kts | 173° |
| 2026-04-29 17:44 | 63.93184 | -22.59140 | 1817 ft | 216 kts | 155° |
| 2026-04-29 17:44 | 63.91812 | -22.57418 | 2384 ft | 233 kts | 155° |
| 2026-04-29 17:44 | 63.90321 | -22.55766 | 2936 ft | 244 kts | 158° |
| 2026-04-29 17:45 | 63.88732 | -22.54149 | 3500 ft | 256 kts | 159° |
| 2026-04-29 17:45 | 63.87074 | -22.52446 | 4067 ft | 267 kts | 159° |
| 2026-04-29 17:45 | 63.85369 | -22.50663 | 4618 ft | 267 kts | 159° |
| 2026-04-29 17:45 | 63.83710 | -22.48917 | 5156 ft | 258 kts | 160° |
| 2026-04-29 17:46 | 63.82088 | -22.47221 | 5701 ft | 256 kts | 160° |
| 2026-04-29 17:46 | 63.80480 | -22.45552 | 6246 ft | 253 kts | 161° |
| 2026-04-29 17:46 | 63.78867 | -22.43883 | 6746 ft | 257 kts | 162° |
| 2026-04-29 17:46 | 63.77235 | -22.42195 | 7311 ft | 259 kts | 162° |
| 2026-04-29 17:47 | 63.75593 | -22.40493 | 7881 ft | 260 kts | 162° |
| 2026-04-29 17:47 | 63.73944 | -22.38784 | 8438 ft | 262 kts | 163° |
| 2026-04-29 17:47 | 63.72283 | -22.37068 | 8999 ft | 263 kts | 163° |
| 2026-04-29 17:47 | 63.70611 | -22.35343 | 9566 ft | 265 kts | 163° |
| 2026-04-29 17:48 | 63.68947 | -22.33629 | 10091 ft | 269 kts | 164° |
| 2026-04-29 17:48 | 63.67203 | -22.31834 | 10392 ft | 282 kts | 163° |
| 2026-04-29 17:48 | 63.65385 | -22.29900 | 10700 ft | 296 kts | 162° |
| 2026-04-29 17:48 | 63.63490 | -22.27847 | 10998 ft | 309 kts | 162° |
| 2026-04-29 17:49 | 63.61519 | -22.25715 | 11395 ft | 318 kts | 162° |
| 2026-04-29 17:49 | 63.59511 | -22.23546 | 11977 ft | 321 kts | 162° |
| 2026-04-29 17:49 | 63.57488 | -22.21370 | 12601 ft | 324 kts | 162° |
| 2026-04-29 17:49 | 63.55449 | -22.19186 | 13228 ft | 326 kts | 162° |
| 2026-04-29 17:50 | 63.53394 | -22.16992 | 13851 ft | 328 kts | 163° |
| 2026-04-29 17:50 | 63.51326 | -22.14789 | 14471 ft | 330 kts | 163° |
| 2026-04-29 17:50 | 63.49241 | -22.12569 | 15099 ft | 333 kts | 163° |
| 2026-04-29 17:50 | 63.47145 | -22.10340 | 15733 ft | 335 kts | 163° |
| 2026-04-29 17:51 | 63.45034 | -22.08098 | 16354 ft | 336 kts | 164° |
| 2026-04-29 17:51 | 63.42915 | -22.05852 | 16958 ft | 338 kts | 164° |
| 2026-04-29 17:51 | 63.40804 | -22.03604 | 17779 ft | 332 kts | 166° |
| 2026-04-29 17:51 | 63.38723 | -22.01399 | 18481 ft | 330 kts | 166° |
| 2026-04-29 17:52 | 63.36643 | -21.99215 | 19063 ft | 331 kts | 166° |
| 2026-04-29 17:52 | 63.35233 | -21.97739 | 19431 ft | 332 kts | 166° |
| 2026-04-29 17:52 | 63.32458 | -21.94829 | 20128 ft | 334 kts | 166° |
| 2026-04-29 17:52 | 63.30354 | -21.92621 | 20639 ft | 335 kts | 166° |
| 2026-04-29 17:53 | 63.28236 | -21.90402 | 21139 ft | 337 kts | 166° |
| 2026-04-29 17:53 | 63.26112 | -21.88179 | 21628 ft | 338 kts | 167° |
| 2026-04-29 17:53 | 63.23976 | -21.85948 | 22108 ft | 340 kts | 167° |
| 2026-04-29 17:53 | 63.21833 | -21.83714 | 22576 ft | 341 kts | 167° |
| 2026-04-29 17:54 | 63.19685 | -21.81478 | 23034 ft | 342 kts | 167° |
| 2026-04-29 17:54 | 63.17522 | -21.79231 | 23474 ft | 344 kts | 167° |
| 2026-04-29 17:54 | 63.15352 | -21.76981 | 23889 ft | 346 kts | 167° |
| 2026-04-29 17:54 | 63.13165 | -21.74717 | 24294 ft | 348 kts | 167° |
| 2026-04-29 17:55 | 63.10968 | -21.72445 | 24689 ft | 350 kts | 167° |
| 2026-04-29 17:55 | 63.08758 | -21.70165 | 25077 ft | 352 kts | 167° |
| 2026-04-29 17:55 | 63.06525 | -21.67967 | 25415 ft | 352 kts | 169° |
| 2026-04-29 17:55 | 63.04254 | -21.65946 | 25782 ft | 352 kts | 171° |
| 2026-04-29 17:56 | 63.01973 | -21.63998 | 26176 ft | 353 kts | 171° |
| 2026-04-29 17:56 | 62.99679 | -21.62039 | 26560 ft | 354 kts | 171° |
| 2026-04-29 17:56 | 62.97379 | -21.60055 | 26872 ft | 358 kts | 171° |
| 2026-04-29 17:56 | 62.95024 | -21.58028 | 26869 ft | 369 kts | 171° |
| 2026-04-29 17:57 | 62.92602 | -21.55940 | 26882 ft | 380 kts | 170° |
| 2026-04-29 17:57 | 62.90109 | -21.53787 | 26895 ft | 391 kts | 170° |
| 2026-04-29 17:57 | 62.87561 | -21.51577 | 27144 ft | 394 kts | 170° |
| 2026-04-29 17:57 | 62.85882 | -21.50111 | 27465 ft | 393 kts | 170° |
| 2026-04-29 17:58 | 62.82527 | -21.47191 | 28123 ft | 390 kts | 171° |
| 2026-04-29 17:58 | 62.80010 | -21.45021 | 28621 ft | 387 kts | 171° |
| 2026-04-29 17:58 | 62.77514 | -21.42879 | 29117 ft | 384 kts | 171° |
| 2026-04-29 17:58 | 62.75036 | -21.40757 | 29613 ft | 381 kts | 172° |
| 2026-04-29 17:59 | 62.72575 | -21.38655 | 30110 ft | 377 kts | 172° |
| 2026-04-29 17:59 | 62.70143 | -21.36580 | 30603 ft | 373 kts | 172° |
| 2026-04-29 17:59 | 62.67741 | -21.34534 | 31095 ft | 369 kts | 172° |
| 2026-04-29 17:59 | 62.65367 | -21.32515 | 31586 ft | 364 kts | 172° |
| 2026-04-29 18:00 | 62.63026 | -21.30527 | 32077 ft | 359 kts | 172° |
| 2026-04-29 18:00 | 62.60720 | -21.28571 | 32563 ft | 353 kts | 172° |
| 2026-04-29 18:00 | 62.58441 | -21.26647 | 32877 ft | 351 kts | 172° |
| 2026-04-29 18:00 | 62.56150 | -21.24729 | 33004 ft | 355 kts | 172° |
| 2026-04-29 18:01 | 62.53834 | -21.22796 | 33050 ft | 360 kts | 172° |
| 2026-04-29 18:01 | 62.49086 | -21.18820 | 33076 ft | 372 kts | 172° |
| 2026-04-29 18:02 | 62.44183 | -21.14709 | 33106 ft | 384 kts | 172° |
| 2026-04-29 18:02 | 62.39108 | -21.10478 | 33033 ft | 398 kts | 171° |